KMTP/MTP METAR and TAF weather

Enter ICAO airport designator
Station Type Date Time Source
KMTP METAR 2022/07/03 13:54 UTC NOAA

KMTP 031354Z AUTO VRB03KT 23/21 A3002 RMK AO1 SLP165 T02280206


Station Type Date Time Source
KMTP Decoded METAR 2022/07/03 13:54 UTC NOAA

MONTAUK AIRPORT, NY, United States (KMTP) 41-04N 071-55W 2M
Jul 03, 2022 - 09:54 AM EDT / 2022.07.03 1354 UTC
Wind: Variable at 3 MPH (3 KT):0
Temperature: 73.0 F (22.8 C)
Dew Point: 69.1 F (20.6 C)
Relative Humidity: 87%
Pressure (altimeter): 30.02 in. Hg (1016 hPa)
ob: KMTP 031354Z AUTO VRB03KT 23/21 A3002 RMK AO1 SLP165 T02280206
cycle: 14

Station Type Date Time Source
KMTP TAF UTC NOAA

Error!

Example: see airport list